Time;durP1;ratioP1;P1;durP2;ratioP2;P2;SDS_P1;SDS_P2;PMS_P1;PMS_P2;Temp;Humidity;BMP_temperature;BMP_pressure;BME280_temperature;BME280_humidity;BME280_pressure;Samples;Min_cycle;Max_cycle;Signal;HPM_P1;HPM_P2
2023/12/17 00:02:03;;;;;;;127.05;56.88;;;17.30;72.90;;;;;;5057456;28;20087;-38
2023/12/17 00:04:29;;;;;;;127.45;57.17;;;17.30;72.90;;;;;;5052197;28;20550;-38
2023/12/17 00:06:54;;;;;;;127.72;57.17;;;17.30;73.10;;;;;;5057468;28;20172;-38
2023/12/17 00:09:20;;;;;;;127.13;56.80;;;17.30;72.90;;;;;;5062491;28;20033;-38
2023/12/17 00:11:47;;;;;;;126.20;56.80;;;17.30;73.10;;;;;;5059525;28;20025;-39
2023/12/17 00:14:13;;;;;;;126.32;56.45;;;17.30;72.90;;;;;;5059724;28;20044;-40
2023/12/17 00:16:39;;;;;;;126.97;56.65;;;17.20;73.00;;;;;;5053558;28;20431;-39
2023/12/17 00:19:04;;;;;;;126.30;56.90;;;17.20;72.80;;;;;;5055726;28;20048;-38
2023/12/17 00:21:30;;;;;;;126.25;56.55;;;17.20;73.10;;;;;;5062813;28;20040;-38
2023/12/17 00:23:56;;;;;;;128.13;56.88;;;17.20;73.00;;;;;;5061131;28;20041;-38
2023/12/17 00:26:21;;;;;;;126.85;57.10;;;17.20;73.00;;;;;;5054991;28;20517;-38
2023/12/17 00:28:47;;;;;;;126.18;56.70;;;17.20;73.00;;;;;;5053477;28;20924;-37
2023/12/17 00:31:13;;;;;;;126.68;56.28;;;17.10;73.00;;;;;;5057311;28;20661;-38
2023/12/17 00:33:38;;;;;;;126.65;56.95;;;17.10;73.00;;;;;;5060406;28;21817;-38
2023/12/17 00:36:04;;;;;;;126.82;56.83;;;17.10;73.00;;;;;;5061827;28;20068;-39
2023/12/17 00:38:30;;;;;;;126.75;56.83;;;17.10;73.00;;;;;;5055282;28;20045;-39
2023/12/17 00:40:55;;;;;;;126.82;56.60;;;17.10;72.90;;;;;;5058211;28;20108;-39
2023/12/17 00:43:21;;;;;;;127.32;57.08;;;17.10;72.90;;;;;;5057282;28;20057;-39
2023/12/17 00:45:46;;;;;;;125.93;56.67;;;17.10;72.90;;;;;;5057419;28;20041;-38
2023/12/17 00:48:12;;;;;;;125.97;56.88;;;17.00;73.00;;;;;;5058926;28;20063;-38
2023/12/17 00:50:38;;;;;;;126.68;57.08;;;17.10;73.00;;;;;;5053797;28;20028;-39
2023/12/17 00:53:03;;;;;;;127.20;57.05;;;17.10;72.80;;;;;;5061051;28;20060;-38
2023/12/17 00:55:29;;;;;;;126.32;56.47;;;17.00;72.80;;;;;;5056538;28;20420;-38
2023/12/17 00:57:55;;;;;;;126.55;56.47;;;17.00;72.80;;;;;;5056198;28;20045;-40
2023/12/17 01:00:20;;;;;;;126.25;56.90;;;17.00;72.90;;;;;;5056133;28;20044;-36
2023/12/17 01:02:46;;;;;;;126.40;57.40;;;17.00;72.70;;;;;;5051670;28;20575;-38
2023/12/17 01:05:12;;;;;;;127.32;57.63;;;17.00;72.70;;;;;;5058614;28;20036;-39
2023/12/17 01:07:37;;;;;;;126.55;57.22;;;17.00;72.60;;;;;;5059416;28;20139;-39
2023/12/17 01:10:04;;;;;;;126.90;56.63;;;17.00;72.80;;;;;;5056938;28;20029;-39
2023/12/17 01:12:29;;;;;;;125.32;56.55;;;17.00;72.70;;;;;;5057636;28;20040;-38
2023/12/17 01:14:55;;;;;;;125.60;56.60;;;16.90;72.80;;;;;;5062247;28;20102;-38
2023/12/17 01:17:21;;;;;;;125.43;56.70;;;16.90;72.70;;;;;;5058428;28;20109;-38
2023/12/17 01:19:46;;;;;;;125.53;56.47;;;16.90;72.60;;;;;;5057194;28;20049;-39
2023/12/17 01:22:12;;;;;;;126.13;57.08;;;16.90;72.70;;;;;;5055662;28;20102;-38
2023/12/17 01:24:39;;;;;;;124.97;55.97;;;16.90;72.50;;;;;;5059363;28;20955;-39
2023/12/17 01:27:05;;;;;;;126.50;56.80;;;16.90;72.80;;;;;;5057803;28;20042;-39
2023/12/17 01:29:30;;;;;;;126.57;56.45;;;16.90;72.80;;;;;;5058786;28;20130;-38
2023/12/17 01:31:57;;;;;;;126.75;57.17;;;16.80;72.80;;;;;;5055563;28;20033;-38
2023/12/17 01:34:23;;;;;;;126.30;56.78;;;16.90;72.70;;;;;;5056911;28;20155;-38
2023/12/17 01:36:49;;;;;;;125.00;56.55;;;16.90;72.60;;;;;;5057093;28;20041;-38
2023/12/17 01:39:16;;;;;;;126.63;57.20;;;16.80;72.80;;;;;;5058631;28;20059;-37
2023/12/17 01:41:42;;;;;;;126.32;56.53;;;16.80;72.90;;;;;;5063505;28;20529;-38
2023/12/17 01:44:07;;;;;;;125.75;56.65;;;16.80;72.90;;;;;;5056724;28;20083;-40
2023/12/17 01:46:33;;;;;;;124.80;56.08;;;16.80;72.80;;;;;;5061036;28;20040;-37
2023/12/17 01:48:59;;;;;;;125.63;56.25;;;16.80;72.80;;;;;;5055961;28;20663;-38
2023/12/17 01:51:26;;;;;;;125.20;56.42;;;16.80;72.80;;;;;;5054169;28;20040;-38
2023/12/17 01:53:52;;;;;;;126.60;56.95;;;16.70;72.80;;;;;;5057226;28;20056;-39
2023/12/17 01:56:18;;;;;;;125.32;56.38;;;16.70;72.80;;;;;;5062896;28;20035;-40
2023/12/17 01:58:44;;;;;;;125.60;56.65;;;16.70;72.80;;;;;;5055877;28;21142;-38
2023/12/17 02:01:11;;;;;;;126.53;56.90;;;16.70;72.80;;;;;;5055688;28;20069;-39
2023/12/17 02:03:37;;;;;;;126.05;56.72;;;16.80;72.90;;;;;;5051888;28;20535;-38
2023/12/17 02:06:06;;;;;;;127.97;57.25;;;16.70;72.80;;;;;;5052947;28;20051;-38
2023/12/17 02:08:32;;;;;;;126.90;57.10;;;16.70;72.80;;;;;;5054434;28;20041;-40
2023/12/17 02:10:58;;;;;;;125.00;56.38;;;16.70;72.70;;;;;;5057670;28;20787;-38
2023/12/17 02:13:23;;;;;;;125.28;56.47;;;16.70;72.80;;;;;;5056921;28;20044;-38
2023/12/17 02:15:49;;;;;;;125.03;56.55;;;16.70;72.80;;;;;;5056686;28;20909;-38
2023/12/17 02:18:15;;;;;;;125.43;56.75;;;16.70;72.70;;;;;;5058034;28;20052;-38
2023/12/17 02:20:43;;;;;;;125.03;56.63;;;16.70;72.90;;;;;;5058585;28;20040;-39
2023/12/17 02:23:10;;;;;;;125.50;56.40;;;16.60;72.80;;;;;;5057963;28;20527;-38
2023/12/17 02:25:36;;;;;;;126.07;57.03;;;16.60;72.90;;;;;;5059456;28;20032;-39
2023/12/17 02:28:01;;;;;;;125.93;56.63;;;16.60;72.90;;;;;;5060009;28;20152;-38
2023/12/17 02:30:27;;;;;;;125.78;56.67;;;16.60;73.00;;;;;;5061192;28;20098;-38
2023/12/17 02:32:53;;;;;;;124.93;56.42;;;16.60;73.00;;;;;;5062146;28;20086;-41
2023/12/17 02:35:18;;;;;;;124.70;56.72;;;16.60;73.00;;;;;;5057771;28;20537;-39
2023/12/17 02:37:44;;;;;;;124.32;56.20;;;16.60;72.90;;;;;;5062030;28;20041;-40
2023/12/17 02:40:10;;;;;;;125.43;56.78;;;16.50;72.90;;;;;;5060976;28;20040;-38
2023/12/17 02:42:36;;;;;;;126.97;56.95;;;16.50;73.10;;;;;;5057260;28;20053;-38
2023/12/17 02:45:02;;;;;;;124.97;56.67;;;16.50;73.00;;;;;;5060483;28;20041;-38
2023/12/17 02:47:27;;;;;;;125.57;56.92;;;16.50;73.00;;;;;;5061601;28;20040;-38
2023/12/17 02:49:53;;;;;;;123.93;56.08;;;16.50;72.90;;;;;;5058922;28;20132;-37
2023/12/17 02:52:19;;;;;;;124.10;56.17;;;16.50;73.10;;;;;;5063004;28;20115;-37
2023/12/17 02:54:44;;;;;;;125.45;56.88;;;16.50;73.10;;;;;;5060756;28;20093;-38
2023/12/17 02:57:10;;;;;;;126.45;56.88;;;16.40;73.10;;;;;;5063406;28;20036;-37
2023/12/17 02:59:36;;;;;;;125.03;56.42;;;16.40;73.10;;;;;;5061102;28;20045;-38
2023/12/17 03:02:01;;;;;;;125.30;56.47;;;16.50;73.10;;;;;;5062234;28;20028;-38
2023/12/17 03:04:27;;;;;;;126.00;57.00;;;16.40;73.00;;;;;;5055418;28;20061;-38
2023/12/17 03:06:53;;;;;;;125.80;56.90;;;16.40;73.00;;;;;;5063095;28;20602;-37
2023/12/17 03:09:19;;;;;;;125.38;56.60;;;16.40;73.20;;;;;;5061097;28;20064;-38
2023/12/17 03:11:45;;;;;;;125.25;56.58;;;16.40;73.10;;;;;;5062479;28;20587;-38
2023/12/17 03:14:11;;;;;;;126.10;57.38;;;16.40;73.00;;;;;;5060309;28;20132;-38
2023/12/17 03:16:36;;;;;;;125.60;56.67;;;16.40;73.10;;;;;;5060307;28;20028;-39
2023/12/17 03:19:02;;;;;;;125.93;57.00;;;16.40;73.20;;;;;;5060850;28;20076;-41
2023/12/17 03:21:28;;;;;;;126.20;56.85;;;16.30;73.00;;;;;;5062808;28;20095;-38
2023/12/17 03:23:54;;;;;;;125.95;57.42;;;16.30;73.10;;;;;;5054365;28;20053;-38
2023/12/17 03:26:20;;;;;;;126.82;57.53;;;16.30;72.90;;;;;;5060153;28;20742;-38
2023/12/17 03:28:46;;;;;;;126.93;56.80;;;16.30;73.10;;;;;;5064569;28;20940;-39
2023/12/17 03:31:14;;;;;;;125.80;57.00;;;16.30;73.00;;;;;;5063605;28;20034;-37
2023/12/17 03:33:44;;;;;;;125.43;56.95;;;16.30;72.90;;;;;;5059352;28;20041;-37
2023/12/17 03:36:16;;;;;;;124.57;56.47;;;16.30;73.00;;;;;;5058549;28;20033;-39
2023/12/17 03:38:44;;;;;;;124.90;56.72;;;16.30;73.00;;;;;;5056125;28;20094;-37
2023/12/17 03:41:23;;;;;;;127.35;57.20;;;16.30;73.10;;;;;;5060913;28;20596;-38
2023/12/17 03:43:53;;;;;;;124.95;57.05;;;16.30;73.00;;;;;;5064546;28;20072;-37
2023/12/17 03:46:20;;;;;;;124.22;56.65;;;16.30;73.00;;;;;;5062714;28;20111;-38
2023/12/17 03:48:46;;;;;;;125.45;56.75;;;16.30;73.10;;;;;;5062587;28;20049;-38
2023/12/17 03:51:12;;;;;;;126.45;57.47;;;16.30;73.10;;;;;;5060166;28;21735;-37
2023/12/17 03:53:38;;;;;;;125.95;57.35;;;16.30;73.10;;;;;;5061746;28;20036;-40
2023/12/17 03:56:08;;;;;;;126.88;57.92;;;16.20;73.10;;;;;;5065599;28;20033;-37
2023/12/17 03:58:34;;;;;;;126.38;57.08;;;16.20;73.10;;;;;;5059613;28;20049;-38
2023/12/17 04:01:01;;;;;;;127.28;57.50;;;16.30;73.10;;;;;;5058616;28;20038;-38
2023/12/17 04:03:26;;;;;;;125.63;57.38;;;16.20;73.10;;;;;;5059435;28;20038;-37
2023/12/17 04:05:52;;;;;;;125.60;57.13;;;16.20;73.10;;;;;;5058913;28;20988;-37
2023/12/17 04:08:17;;;;;;;125.32;57.17;;;16.20;73.10;;;;;;5061572;28;20037;-38
2023/12/17 04:10:43;;;;;;;125.72;57.15;;;16.20;73.10;;;;;;5058180;28;20040;-38
2023/12/17 04:13:09;;;;;;;126.57;57.33;;;16.20;73.10;;;;;;5058661;28;20029;-38
2023/12/17 04:15:34;;;;;;;124.57;56.70;;;16.20;72.90;;;;;;5059025;28;20037;-38
2023/12/17 04:18:00;;;;;;;127.07;57.80;;;16.20;73.00;;;;;;5056467;28;20045;-38
2023/12/17 04:20:25;;;;;;;124.90;57.03;;;16.20;73.10;;;;;;5052481;28;20075;-38
2023/12/17 04:22:51;;;;;;;125.57;57.38;;;16.10;73.50;;;;;;5057604;28;20403;-38
2023/12/17 04:25:17;;;;;;;125.60;57.20;;;16.10;73.10;;;;;;5058701;28;20060;-41
2023/12/17 04:27:42;;;;;;;126.75;57.58;;;16.10;73.20;;;;;;5061284;28;20068;-37
2023/12/17 04:30:08;;;;;;;124.60;56.80;;;16.10;73.20;;;;;;5057555;28;20774;-38
2023/12/17 04:32:34;;;;;;;125.57;57.20;;;16.10;73.20;;;;;;5059555;28;20087;-43
2023/12/17 04:35:00;;;;;;;125.53;57.28;;;16.10;73.20;;;;;;5058762;28;20033;-38
2023/12/17 04:37:25;;;;;;;126.00;57.53;;;16.10;73.20;;;;;;5057268;28;20072;-38
2023/12/17 04:39:51;;;;;;;127.53;58.00;;;16.10;73.10;;;;;;5056118;28;20504;-37
2023/12/17 04:42:17;;;;;;;125.15;56.80;;;16.10;73.20;;;;;;5056123;28;20120;-36
2023/12/17 04:44:43;;;;;;;125.07;57.22;;;16.10;73.20;;;;;;5058218;28;20053;-37
2023/12/17 04:47:10;;;;;;;125.35;56.97;;;16.10;73.10;;;;;;5062045;28;20067;-37
2023/12/17 04:49:36;;;;;;;125.80;56.97;;;16.10;73.20;;;;;;5058541;28;20071;-37
2023/12/17 04:52:01;;;;;;;125.70;57.00;;;16.00;73.10;;;;;;5059808;28;20041;-37
2023/12/17 04:54:27;;;;;;;125.25;56.70;;;16.10;73.10;;;;;;5065698;28;20422;-37
2023/12/17 04:56:54;;;;;;;126.18;57.42;;;16.00;73.10;;;;;;5059228;28;20124;-37
2023/12/17 04:59:21;;;;;;;128.85;57.70;;;16.00;73.00;;;;;;5057604;28;20123;-37
2023/12/17 05:01:47;;;;;;;124.82;57.10;;;16.00;73.10;;;;;;5052132;28;20041;-45
2023/12/17 05:04:13;;;;;;;126.95;57.75;;;16.00;73.20;;;;;;5054407;28;20036;-45
2023/12/17 05:06:39;;;;;;;127.35;57.50;;;16.00;73.20;;;;;;5062895;28;20034;-45
2023/12/17 05:09:04;;;;;;;126.63;57.58;;;15.90;73.20;;;;;;5060704;28;20044;-45
2023/12/17 05:11:30;;;;;;;125.60;57.30;;;15.90;73.20;;;;;;5059798;28;20029;-46
2023/12/17 05:13:56;;;;;;;124.22;57.00;;;15.90;73.20;;;;;;5055073;28;20508;-45
2023/12/17 05:16:21;;;;;;;126.07;57.85;;;15.90;73.20;;;;;;5057169;28;20359;-46
2023/12/17 05:18:47;;;;;;;127.05;57.70;;;15.90;73.10;;;;;;5056704;28;20053;-46
2023/12/17 05:21:12;;;;;;;127.47;57.90;;;15.90;73.20;;;;;;5051984;28;20111;-45
2023/12/17 05:23:38;;;;;;;127.15;58.13;;;15.90;73.10;;;;;;5059913;28;20047;-46
2023/12/17 05:26:04;;;;;;;126.03;57.20;;;15.90;73.30;;;;;;5058895;28;21062;-46
2023/12/17 05:28:29;;;;;;;125.40;57.58;;;15.80;73.10;;;;;;5055663;28;20037;-45
2023/12/17 05:30:55;;;;;;;126.40;57.80;;;15.90;73.20;;;;;;5059296;28;20142;-46
2023/12/17 05:33:21;;;;;;;125.90;57.47;;;15.90;73.20;;;;;;5062945;28;20088;-45
2023/12/17 05:35:46;;;;;;;126.20;57.33;;;15.90;73.20;;;;;;5054114;28;20052;-45
2023/12/17 05:38:12;;;;;;;126.25;57.65;;;15.90;73.30;;;;;;5056627;28;20492;-46
2023/12/17 05:40:38;;;;;;;126.18;57.47;;;15.80;73.30;;;;;;5058859;28;20037;-45
2023/12/17 05:43:06;;;;;;;125.80;57.40;;;15.80;73.40;;;;;;5056663;28;20060;-45
2023/12/17 05:45:33;;;;;;;125.20;56.65;;;15.80;73.40;;;;;;5053055;28;20048;-45
2023/12/17 05:47:58;;;;;;;126.25;58.10;;;15.80;73.40;;;;;;5059232;28;20148;-45
2023/12/17 05:50:24;;;;;;;125.70;57.42;;;15.80;73.30;;;;;;5058807;28;20037;-45
2023/12/17 05:52:50;;;;;;;126.10;57.63;;;15.80;73.30;;;;;;5060140;28;20047;-45
2023/12/17 05:55:15;;;;;;;126.05;57.25;;;15.70;73.30;;;;;;5056473;28;20041;-45
2023/12/17 05:57:42;;;;;;;125.90;57.20;;;15.70;73.50;;;;;;5064754;28;20048;-46
2023/12/17 06:00:09;;;;;;;125.30;57.38;;;15.70;73.50;;;;;;5061468;28;20032;-46
2023/12/17 06:02:34;;;;;;;125.80;57.63;;;15.70;73.70;;;;;;5059014;28;20787;-45
2023/12/17 06:05:00;;;;;;;126.40;57.33;;;15.70;73.70;;;;;;5060322;28;20047;-45
2023/12/17 06:07:26;;;;;;;125.85;57.47;;;15.70;73.60;;;;;;5059100;28;20424;-45
2023/12/17 06:09:51;;;;;;;126.03;57.50;;;15.70;73.60;;;;;;5058737;28;20039;-45
2023/12/17 06:12:17;;;;;;;128.50;57.83;;;15.70;73.60;;;;;;5061491;28;20033;-46
2023/12/17 06:14:43;;;;;;;126.43;57.78;;;15.70;73.80;;;;;;5064660;28;20121;-46
2023/12/17 06:17:10;;;;;;;125.53;57.75;;;15.70;73.70;;;;;;5065208;28;20086;-46
2023/12/17 06:19:37;;;;;;;126.68;58.10;;;15.70;73.80;;;;;;5059400;28;20583;-46
2023/12/17 06:22:03;;;;;;;125.90;57.63;;;15.70;73.90;;;;;;5058135;28;20033;-46
2023/12/17 06:24:29;;;;;;;125.85;58.13;;;15.60;73.90;;;;;;5061426;28;20041;-45
2023/12/17 06:26:55;;;;;;;125.57;57.60;;;15.60;73.90;;;;;;5059222;28;21044;-45
2023/12/17 06:29:21;;;;;;;125.30;57.72;;;15.70;73.90;;;;;;5061219;28;20584;-45
2023/12/17 06:31:46;;;;;;;126.82;56.92;;;15.60;74.00;;;;;;5057763;28;20040;-45
2023/12/17 06:34:13;;;;;;;125.57;57.38;;;15.60;74.00;;;;;;5059110;28;20098;-46
2023/12/17 06:36:39;;;;;;;127.97;58.10;;;15.60;74.00;;;;;;5057956;28;20048;-46
2023/12/17 06:39:09;;;;;;;130.10;58.13;;;15.60;74.00;;;;;;5061702;28;20049;-46
2023/12/17 06:41:36;;;;;;;124.80;57.13;;;15.60;74.10;;;;;;5062382;28;20116;-45
2023/12/17 06:44:02;;;;;;;126.47;57.60;;;15.60;74.10;;;;;;5059843;28;20128;-45
2023/12/17 06:46:27;;;;;;;126.07;57.45;;;15.50;74.00;;;;;;5062464;28;20761;-46
2023/12/17 06:48:53;;;;;;;125.80;57.88;;;15.50;74.40;;;;;;5061354;28;20532;-46
2023/12/17 06:51:19;;;;;;;125.05;57.30;;;15.50;74.00;;;;;;5055859;28;20029;-47
2023/12/17 06:53:44;;;;;;;126.63;57.58;;;15.50;74.10;;;;;;5061959;28;20041;-48
2023/12/17 06:56:10;;;;;;;126.78;57.33;;;15.50;74.70;;;;;;5059472;28;20033;-47
2023/12/17 06:58:36;;;;;;;124.75;57.65;;;15.50;74.00;;;;;;5062272;28;20543;-48
2023/12/17 07:01:02;;;;;;;126.13;57.63;;;15.50;74.10;;;;;;5063071;28;20028;-48
2023/12/17 07:03:27;;;;;;;128.68;58.00;;;15.50;74.10;;;;;;5058864;28;20105;-47
2023/12/17 07:05:53;;;;;;;126.45;57.92;;;15.50;74.00;;;;;;5058139;28;20040;-47
2023/12/17 07:08:19;;;;;;;125.43;57.67;;;15.40;74.20;;;;;;5054867;28;20052;-47
2023/12/17 07:10:45;;;;;;;126.35;57.22;;;15.50;74.20;;;;;;5057042;28;20385;-47
2023/12/17 07:13:11;;;;;;;125.60;57.35;;;15.40;74.30;;;;;;5055859;28;20052;-47
2023/12/17 07:15:37;;;;;;;127.03;58.10;;;15.50;74.30;;;;;;5053755;28;20033;-48
2023/12/17 07:18:02;;;;;;;125.72;58.17;;;15.40;74.10;;;;;;5060936;28;20033;-47
2023/12/17 07:20:28;;;;;;;127.35;57.47;;;15.40;74.30;;;;;;5059408;28;20080;-46
2023/12/17 07:22:54;;;;;;;126.45;57.83;;;15.40;74.30;;;;;;5055164;28;20128;-48
2023/12/17 07:25:20;;;;;;;126.55;57.45;;;15.40;75.00;;;;;;5059445;28;20043;-47
2023/12/17 07:27:45;;;;;;;127.57;57.85;;;15.30;74.30;;;;;;5060755;28;20111;-44
2023/12/17 07:30:12;;;;;;;128.43;58.95;;;15.30;74.30;;;;;;5054813;28;20119;-47
2023/12/17 07:32:37;;;;;;;128.20;58.05;;;15.30;74.40;;;;;;5051118;28;20454;-47
2023/12/17 07:35:06;;;;;;;129.50;57.92;;;15.30;74.60;;;;;;5050339;28;20041;-47
2023/12/17 07:37:32;;;;;;;125.78;57.97;;;15.30;74.50;;;;;;5048097;28;20064;-47
2023/12/17 07:39:58;;;;;;;125.63;57.38;;;15.20;74.60;;;;;;5049405;28;20116;-47
2023/12/17 07:42:23;;;;;;;126.65;57.10;;;15.30;74.80;;;;;;5052461;28;20520;-47
2023/12/17 07:44:49;;;;;;;125.88;57.90;;;15.30;74.70;;;;;;5054911;28;20080;-47
2023/12/17 07:47:14;;;;;;;129.80;57.60;;;15.30;74.70;;;;;;5056435;28;20025;-47
2023/12/17 07:49:40;;;;;;;126.68;57.22;;;15.20;74.80;;;;;;5058164;28;20033;-48
2023/12/17 07:52:06;;;;;;;127.78;57.95;;;15.20;75.00;;;;;;5057317;28;20083;-47
2023/12/17 07:54:32;;;;;;;127.22;57.47;;;15.20;75.00;;;;;;5056831;28;20072;-47
2023/12/17 07:56:58;;;;;;;126.85;58.00;;;15.20;75.10;;;;;;5058695;28;20112;-47
2023/12/17 07:59:25;;;;;;;126.95;57.55;;;15.20;75.30;;;;;;5057945;28;21205;-47
2023/12/17 08:01:51;;;;;;;125.57;57.72;;;15.20;75.50;;;;;;5058126;28;20068;-45
2023/12/17 08:04:18;;;;;;;125.78;57.75;;;15.30;75.80;;;;;;5057476;28;20056;-45
2023/12/17 08:06:44;;;;;;;128.63;57.95;;;15.30;75.80;;;;;;5056978;28;20029;-46
2023/12/17 08:09:13;;;;;;;129.20;59.30;;;15.30;75.90;;;;;;5050165;28;20132;-46
2023/12/17 08:11:40;;;;;;;128.23;59.22;;;15.30;75.70;;;;;;5058528;28;20037;-45
2023/12/17 08:14:06;;;;;;;128.73;59.42;;;15.30;75.80;;;;;;5059818;28;20049;-45
2023/12/17 08:16:32;;;;;;;129.23;58.65;;;15.30;76.00;;;;;;5057349;28;20461;-45
2023/12/17 08:18:58;;;;;;;129.52;58.30;;;15.30;75.90;;;;;;5057224;28;20053;-49
2023/12/17 08:21:23;;;;;;;128.05;58.10;;;15.30;76.00;;;;;;5052900;28;20120;-46
2023/12/17 08:23:49;;;;;;;129.80;57.65;;;15.30;76.10;;;;;;5048095;28;20040;-46
2023/12/17 08:26:15;;;;;;;128.18;57.90;;;15.30;76.00;;;;;;5051205;28;20120;-45
2023/12/17 08:28:40;;;;;;;127.95;58.60;;;15.30;75.90;;;;;;5060674;28;20072;-45
2023/12/17 08:31:09;;;;;;;128.38;58.33;;;15.20;75.70;;;;;;5060404;28;20041;-45
2023/12/17 08:33:36;;;;;;;130.60;58.85;;;15.20;75.70;;;;;;5051558;28;20068;-46
2023/12/17 08:36:02;;;;;;;128.88;58.10;;;15.20;75.90;;;;;;5053652;28;20546;-45
2023/12/17 08:38:27;;;;;;;126.75;58.00;;;15.20;75.70;;;;;;5050718;28;20076;-46
2023/12/17 08:40:54;;;;;;;127.82;58.10;;;15.30;75.90;;;;;;5045499;28;20037;-45
2023/12/17 08:43:20;;;;;;;125.75;58.05;;;15.20;75.70;;;;;;5053619;28;20122;-46
2023/12/17 08:45:45;;;;;;;127.57;57.88;;;15.20;75.70;;;;;;5055683;28;20495;-45
2023/12/17 08:48:11;;;;;;;128.40;58.60;;;15.20;76.00;;;;;;5055371;28;20033;-46
2023/12/17 08:50:37;;;;;;;127.00;58.15;;;15.20;76.10;;;;;;5052390;28;20052;-45
2023/12/17 08:53:02;;;;;;;128.18;57.28;;;15.20;76.30;;;;;;5056107;28;20132;-45
2023/12/17 08:55:28;;;;;;;126.30;57.90;;;15.20;76.30;;;;;;5057191;28;20483;-46
2023/12/17 08:57:54;;;;;;;130.35;59.17;;;15.20;76.30;;;;;;5048647;28;20070;-45
2023/12/17 09:00:20;;;;;;;138.32;59.97;;;15.20;76.60;;;;;;5045522;28;20047;-46
2023/12/17 09:02:45;;;;;;;133.98;60.03;;;15.20;77.40;;;;;;5037872;28;20509;-46
2023/12/17 09:05:12;;;;;;;144.85;59.55;;;15.20;77.40;;;;;;5042915;28;20025;-46
2023/12/17 09:07:38;;;;;;;138.05;60.92;;;15.20;77.80;;;;;;5053044;28;20041;-46
2023/12/17 09:10:04;;;;;;;134.10;60.50;;;15.20;78.50;;;;;;5049986;28;20068;-45
2023/12/17 09:12:30;;;;;;;139.75;60.33;;;15.20;79.10;;;;;;5055680;28;20145;-46
2023/12/17 09:14:56;;;;;;;139.15;60.45;;;15.20;79.00;;;;;;5061316;28;20037;-46
2023/12/17 09:17:21;;;;;;;138.65;60.38;;;15.20;79.00;;;;;;5049345;28;20110;-45
2023/12/17 09:19:47;;;;;;;136.85;61.35;;;15.20;79.10;;;;;;5047753;28;20956;-46
2023/12/17 09:22:13;;;;;;;132.75;59.95;;;15.20;79.00;;;;;;5046384;28;20037;-48
2023/12/17 09:24:39;;;;;;;136.00;60.28;;;15.20;78.90;;;;;;5050627;28;20160;-47
2023/12/17 09:27:05;;;;;;;136.82;59.75;;;15.20;79.10;;;;;;5047663;28;20535;-47
2023/12/17 09:29:32;;;;;;;131.60;59.40;;;15.30;78.90;;;;;;5053885;28;20067;-47
2023/12/17 09:31:57;;;;;;;134.82;60.00;;;15.20;78.80;;;;;;5051528;28;20580;-48
2023/12/17 09:34:23;;;;;;;132.32;59.30;;;15.20;78.70;;;;;;5054947;28;20037;-47
2023/12/17 09:36:48;;;;;;;131.05;59.53;;;15.20;78.70;;;;;;5047422;28;20111;-47
2023/12/17 09:39:14;;;;;;;131.77;60.58;;;15.20;78.70;;;;;;5051778;28;20049;-47
2023/12/17 09:41:42;;;;;;;137.35;60.83;;;15.20;78.60;;;;;;5053737;28;20037;-48
2023/12/17 09:44:08;;;;;;;132.93;59.20;;;15.20;78.30;;;;;;5054644;28;20053;-47
2023/12/17 09:46:35;;;;;;;130.77;59.05;;;15.20;78.30;;;;;;5056960;28;20041;-48
2023/12/17 09:49:01;;;;;;;136.20;59.90;;;15.20;78.30;;;;;;5053144;28;20045;-37
2023/12/17 09:51:28;;;;;;;133.20;59.90;;;15.20;78.00;;;;;;5058908;28;20059;-38
2023/12/17 09:53:56;;;;;;;134.65;59.97;;;15.30;78.80;;;;;;5056199;28;20538;-38
2023/12/17 09:56:21;;;;;;;137.00;60.22;;;15.30;77.60;;;;;;5053037;28;20543;-38
2023/12/17 09:58:47;;;;;;;131.77;59.75;;;15.40;77.10;;;;;;5051102;28;20167;-38
2023/12/17 10:01:13;;;;;;;137.88;59.88;;;15.40;77.00;;;;;;5048642;28;20064;-40
2023/12/17 10:03:39;;;;;;;130.98;59.53;;;15.30;77.10;;;;;;5044023;28;20068;-37
2023/12/17 10:06:05;;;;;;;131.55;59.75;;;15.30;77.10;;;;;;5057425;28;20582;-39
2023/12/17 10:08:32;;;;;;;131.27;58.83;;;15.30;77.10;;;;;;5052127;28;20160;-38
2023/12/17 10:10:57;;;;;;;130.52;60.10;;;15.30;77.10;;;;;;5053106;28;20121;-40
2023/12/17 10:13:23;;;;;;;129.75;58.95;;;15.30;76.90;;;;;;5053281;28;20045;-38
2023/12/17 10:15:50;;;;;;;128.88;59.58;;;15.30;77.00;;;;;;5055207;28;20064;-38
2023/12/17 10:18:19;;;;;;;131.15;59.58;;;15.30;77.10;;;;;;5051591;28;20107;-39
2023/12/17 10:20:46;;;;;;;131.60;58.92;;;15.30;76.90;;;;;;5059431;28;20066;-39
2023/12/17 10:23:12;;;;;;;130.73;58.95;;;15.30;76.90;;;;;;5053562;28;20057;-38
2023/12/17 10:25:39;;;;;;;131.07;59.00;;;15.30;76.90;;;;;;5056888;28;20143;-39
2023/12/17 10:28:05;;;;;;;130.95;58.00;;;15.30;76.70;;;;;;5059101;28;21113;-38
2023/12/17 10:30:32;;;;;;;130.15;58.80;;;15.30;76.80;;;;;;5047472;28;20568;-41
2023/12/17 10:33:00;;;;;;;131.10;59.03;;;15.30;76.70;;;;;;5054884;28;20180;-39
2023/12/17 10:35:26;;;;;;;131.55;58.85;;;15.30;76.80;;;;;;5055298;28;20067;-38
2023/12/17 10:38:03;;;;;;;130.00;58.53;;;15.30;76.80;;;;;;5042921;28;20038;-39
2023/12/17 10:40:30;;;;;;;131.40;58.90;;;15.40;76.70;;;;;;5056344;28;20053;-38
2023/12/17 10:42:57;;;;;;;128.80;58.38;;;15.40;76.60;;;;;;5050743;28;20580;-39
2023/12/17 10:45:24;;;;;;;130.77;58.80;;;15.30;76.50;;;;;;5051549;28;20116;-37
2023/12/17 10:47:56;;;;;;;127.85;58.63;;;15.40;76.70;;;;;;5051249;28;20079;-38
2023/12/17 10:50:23;;;;;;;130.32;58.97;;;15.30;76.50;;;;;;5053579;28;20033;-40
2023/12/17 10:52:49;;;;;;;129.45;58.95;;;15.40;76.60;;;;;;5053783;28;20029;-37
2023/12/17 10:55:16;;;;;;;130.90;58.58;;;15.40;76.50;;;;;;5058312;28;20132;-38
2023/12/17 10:57:50;;;;;;;130.73;59.38;;;15.40;76.20;;;;;;5054361;28;20190;-39
2023/12/17 11:00:20;;;;;;;127.80;57.63;;;15.40;76.30;;;;;;5051893;28;20049;-38
2023/12/17 11:02:50;;;;;;;130.38;59.13;;;15.40;76.20;;;;;;5052582;28;20092;-38
2023/12/17 11:05:16;;;;;;;130.60;58.00;;;15.50;76.00;;;;;;5052885;28;20130;-41
2023/12/17 11:07:42;;;;;;;129.48;58.45;;;15.50;76.00;;;;;;5052868;28;20534;-41
2023/12/17 11:10:15;;;;;;;130.80;58.75;;;15.50;76.00;;;;;;5058134;28;20052;-38
2023/12/17 11:12:42;;;;;;;126.00;57.85;;;15.50;75.80;;;;;;5052503;28;20506;-43
2023/12/17 11:15:08;;;;;;;129.93;58.42;;;15.50;75.80;;;;;;5052130;28;20939;-37
2023/12/17 11:17:34;;;;;;;128.85;58.25;;;15.50;75.90;;;;;;5054848;28;20041;-39
2023/12/17 11:20:01;;;;;;;127.43;58.25;;;15.40;76.00;;;;;;5055268;28;20056;-38
2023/12/17 11:22:28;;;;;;;128.57;58.63;;;15.50;75.90;;;;;;5052632;28;20037;-38
2023/12/17 11:24:55;;;;;;;127.85;58.45;;;15.40;75.70;;;;;;5055871;28;20043;-39
2023/12/17 11:27:22;;;;;;;126.80;58.03;;;15.50;75.80;;;;;;5050992;28;20046;-39
2023/12/17 11:29:50;;;;;;;128.80;58.00;;;15.50;75.40;;;;;;5052587;28;20095;-39
2023/12/17 11:32:18;;;;;;;129.60;58.42;;;15.50;75.40;;;;;;5055883;28;20045;-38
2023/12/17 11:34:48;;;;;;;128.90;58.42;;;15.50;75.30;;;;;;5059004;28;20028;-39
2023/12/17 11:37:21;;;;;;;126.63;58.17;;;15.50;75.40;;;;;;5053555;28;20037;-38
2023/12/17 11:39:48;;;;;;;128.77;58.05;;;15.50;75.10;;;;;;5057637;28;20263;-38
2023/12/17 11:42:14;;;;;;;126.68;57.97;;;15.40;75.10;;;;;;5052143;28;20083;-39
2023/12/17 11:44:48;;;;;;;126.18;57.70;;;15.40;75.30;;;;;;5048963;28;20128;-38
2023/12/17 11:47:14;;;;;;;128.48;58.38;;;15.40;75.40;;;;;;5051450;28;20059;-38
2023/12/17 11:49:40;;;;;;;127.63;57.83;;;15.40;75.20;;;;;;5057629;28;20042;-38
2023/12/17 11:52:11;;;;;;;128.95;58.15;;;15.40;75.20;;;;;;5043837;28;20034;-38
2023/12/17 11:54:37;;;;;;;130.15;58.15;;;15.50;75.40;;;;;;5037915;28;20088;-37
2023/12/17 11:57:03;;;;;;;130.45;58.75;;;15.70;75.00;;;;;;5042381;28;20084;-39
2023/12/17 11:59:34;;;;;;;129.23;58.15;;;15.80;74.20;;;;;;5048550;28;20545;-37
2023/12/17 12:02:05;;;;;;;129.48;58.28;;;15.90;73.80;;;;;;5050785;28;20044;-38
2023/12/17 12:04:44;;;;;;;130.77;59.15;;;15.90;73.60;;;;;;5040206;28;20045;-38
2023/12/17 12:07:11;;;;;;;132.57;59.22;;;16.00;73.70;;;;;;5036367;28;20090;-38
2023/12/17 12:09:37;;;;;;;133.68;58.10;;;16.00;73.90;;;;;;5049639;28;20065;-42
2023/12/17 12:12:18;;;;;;;134.05;58.72;;;16.00;73.90;;;;;;5048942;28;20609;-41
2023/12/17 12:14:45;;;;;;;132.68;58.33;;;16.00;74.00;;;;;;5054135;28;20530;-41